Time;durP1;ratioP1;P1;durP2;ratioP2;P2;SDS_P1;SDS_P2;PMS_P1;PMS_P2;Temp;Humidity;BMP_temperature;BMP_pressure;BME280_temperature;BME280_humidity;BME280_pressure;Samples;Min_cycle;Max_cycle;Signal;HPM_P1;HPM_P2
2022/01/13 00:00:19;;;;;;;103.50;39.47;;;;;;;-144.19;100.00;79859.94;4959009;28;20073;-92
2022/01/13 00:02:46;;;;;;;;;;;;;;;-144.19;100.00;79871.75;4958460;28;20057;-93
2022/01/13 00:05:13;;;;;;;110.38;39.35;;;;;;;-144.19;100.00;79848.13;4975818;28;19976;-93
2022/01/13 00:07:40;;;;;;;111.20;38.05;;;;;;;-144.19;100.00;79852.06;4958891;28;20113;-92
2022/01/13 00:10:07;;;;;;;105.63;37.80;;;;;;;-144.19;100.00;79865.84;4958475;28;20057;-92
2022/01/13 00:12:39;;;;;;;;;;;;;;;-144.19;100.00;79856.00;4958828;28;20065;-92
2022/01/13 00:18:00;;;;;;;105.82;37.05;;;;;;;-144.19;100.00;79854.03;4975662;28;20078;-92
2022/01/13 00:23:40;;;;;;;89.88;33.83;;;;;;;-144.19;100.00;79869.78;4974916;28;20129;-93
2022/01/13 00:26:25;;;;;;;98.20;36.92;;;;;;;-144.19;100.00;79867.81;4958509;28;20055;-92
2022/01/13 00:28:54;;;;;;;86.10;33.60;;;;;;;-144.19;100.00;79871.75;4958145;28;20140;-91
2022/01/13 00:31:27;;;;;;;90.38;35.38;;;;;;;-144.19;100.00;79863.88;4958223;28;20515;-92
2022/01/13 00:33:57;;;;;;;96.22;33.10;;;;;;;-144.19;100.00;79844.19;4957977;28;20050;-92
2022/01/13 00:36:27;;;;;;;101.50;33.63;;;;;;;-144.19;100.00;79844.19;4958320;28;20051;-92
2022/01/13 00:38:54;;;;;;;95.22;34.65;;;;;;;-144.19;100.00;79836.31;4957188;28;20050;-92
2022/01/13 00:41:23;;;;;;;99.18;33.72;;;;;;;-144.19;100.00;79836.31;4957936;28;20080;-92
2022/01/13 00:43:49;;;;;;;100.20;34.30;;;;;;;-144.19;100.00;79832.38;4957813;28;20047;-91
2022/01/13 00:46:22;;;;;;;93.32;33.75;;;;;;;-144.19;100.00;79820.53;4958032;28;20057;-92
2022/01/13 00:48:49;;;;;;;93.90;34.13;;;;;;;-144.19;100.00;79844.19;4957660;28;20086;-91
2022/01/13 00:51:16;;;;;;;104.32;35.63;;;;;;;-144.19;100.00;79828.44;4957500;28;20057;-92
2022/01/13 00:53:43;;;;;;;103.47;35.00;;;;;;;-144.19;100.00;79826.44;4957744;28;20062;-93
2022/01/13 00:56:10;;;;;;;101.13;33.25;;;;;;;-144.19;100.00;79844.19;4957790;28;20051;-92
2022/01/13 00:58:37;;;;;;;;;;;;;;;-144.19;100.00;79854.03;4975093;28;20133;-93
2022/01/13 01:01:05;;;;;;;92.35;32.28;;;;;;;-144.19;100.00;79859.94;4957957;28;19922;-92
2022/01/13 01:03:34;;;;;;;101.15;32.80;;;;;;;-144.19;100.00;79848.13;4974556;28;20061;-92
2022/01/13 01:06:03;;;;;;;92.72;33.65;;;;;;;-144.19;100.00;79844.19;4957498;28;20051;-92
2022/01/13 01:08:33;;;;;;;96.75;33.45;;;;;;;-144.19;100.00;79848.13;4974591;28;20062;-92
2022/01/13 01:11:02;;;;;;;93.65;35.10;;;;;;;-144.19;100.00;79856.00;4957496;28;20051;-92
2022/01/13 01:13:32;;;;;;;98.18;33.70;;;;;;;-144.19;100.00;79840.25;4956917;28;20051;-92
2022/01/13 01:16:03;;;;;;;90.53;30.70;;;;;;;-144.19;100.00;79832.38;4957130;28;20051;-92
2022/01/13 01:18:49;;;;;;;106.22;34.80;;;;;;;-144.19;100.00;79816.59;4974790;28;20047;-92
2022/01/13 01:21:35;;;;;;;111.15;38.08;;;;;;;-144.19;100.00;79808.72;4974341;28;20066;-92
2022/01/13 01:27:17;;;;;;;96.57;33.55;;;;;;;-144.19;100.00;79832.38;4974505;28;20408;-93
2022/01/13 01:29:40;;;;;;;92.32;32.97;;;;;;;-144.19;100.00;79850.09;4970517;28;20057;-93
2022/01/13 01:32:11;;;;;;;98.15;32.95;;;;;;;-144.19;100.00;79840.25;4957063;28;20145;-92
2022/01/13 01:37:13;;;;;;;95.90;37.35;;;;;;;-144.19;100.00;79836.31;4974067;28;20057;-92
2022/01/13 01:39:40;;;;;;;96.05;32.83;;;;;;;-144.19;100.00;79846.16;4974351;28;20054;-92
2022/01/13 01:42:07;;;;;;;99.05;35.47;;;;;;;-144.19;100.00;79840.25;4956609;28;20416;-93
2022/01/13 01:44:38;;;;;;;95.97;33.13;;;;;;;-144.19;100.00;79832.38;4956979;28;20049;-92
2022/01/13 01:47:08;;;;;;;97.47;34.42;;;;;;;-144.19;100.00;79836.31;4956899;28;20050;-93
2022/01/13 01:49:39;;;;;;;87.88;32.08;;;;;;;-144.19;100.00;79840.25;4956656;28;20063;-92
2022/01/13 01:52:10;;;;;;;79.88;31.27;;;;;;;-144.19;100.00;79830.41;4956661;28;20053;-92
2022/01/13 01:54:37;;;;;;;101.15;31.50;;;;;;;-144.19;100.00;79836.31;4972552;28;20050;-92
2022/01/13 01:57:04;;;;;;;90.82;28.58;;;;;;;-144.19;100.00;79846.16;4956733;28;20421;-93
2022/01/13 01:59:33;;;;;;;100.75;34.33;;;;;;;-144.19;100.00;79830.41;4956514;28;20054;-93
2022/01/13 02:02:00;;;;;;;90.72;32.65;;;;;;;-144.19;100.00;79832.38;4956541;28;20062;-92
2022/01/13 02:04:27;;;;;;;97.57;30.75;;;;;;;-144.19;100.00;79836.31;4956543;28;20066;-93
2022/01/13 02:06:55;;;;;;;90.07;34.97;;;;;;;-144.19;100.00;79856.00;4956367;28;20062;-92
2022/01/13 02:09:22;;;;;;;97.10;36.25;;;;;;;-144.19;100.00;79824.47;4956474;28;20061;-93
2022/01/13 02:11:56;;;;;;;85.25;34.30;;;;;;;-144.19;100.00;79850.09;4956277;28;20707;-93
2022/01/13 02:17:05;;;;;;;91.18;33.22;;;;;;;-144.19;100.00;79820.53;5004240;23;20053;-88
2022/01/13 02:19:34;;;;;;;92.70;31.88;;;;;;;-144.19;100.00;79816.59;4975575;28;20254;-89
2022/01/13 02:22:02;;;;;;;87.80;32.33;;;;;;;-144.19;100.00;79840.25;4975554;28;20060;-89
2022/01/13 02:24:28;;;;;;;;;;;;;;;-144.19;100.00;79834.34;4993360;28;20053;-90
2022/01/13 02:26:55;;;;;;;84.40;32.33;;;;;;;-144.19;100.00;79836.31;4992916;28;19921;-89
2022/01/13 02:29:22;;;;;;;;;;;;;;;-144.19;100.00;79842.22;4975795;28;20050;-88
2022/01/13 02:31:48;;;;;;;96.25;33.25;;;;;;;-144.19;100.00;79842.22;4975499;28;19975;-89
2022/01/13 02:34:15;;;;;;;92.93;34.10;;;;;;;-144.19;100.00;79840.25;4974938;28;20061;-89
2022/01/13 02:36:43;;;;;;;93.95;34.35;;;;;;;-144.19;100.00;79840.25;4975591;28;20152;-88
2022/01/13 02:39:10;;;;;;;96.00;33.25;;;;;;;-144.19;100.00;79852.06;4975956;28;20050;-90
2022/01/13 02:41:36;;;;;;;88.30;31.60;;;;;;;-144.19;100.00;79838.28;4975473;28;20402;-90
2022/01/13 02:44:11;;;;;;;91.90;29.53;;;;;;;-144.19;100.00;79844.19;4975851;28;20285;-88
2022/01/13 02:49:15;;;;;;;88.00;33.13;;;;;;;-144.19;100.00;79844.19;4993100;28;20073;-89
2022/01/13 02:51:44;;;;;;;102.45;32.75;;;;;;;-144.19;100.00;79816.59;4975364;28;20046;-88
2022/01/13 02:54:11;;;;;;;101.18;34.60;;;;;;;-144.19;100.00;79822.50;4956048;28;20575;-88
2022/01/13 02:56:38;;;;;;;;;;;;;;;-144.19;100.00;79816.59;4969089;28;20497;-89
2022/01/13 02:59:06;;;;;;;92.80;33.20;;;;;;;-144.19;100.00;79828.44;4975495;28;19922;-88
2022/01/13 03:01:33;;;;;;;86.95;31.42;;;;;;;-144.19;100.00;79832.38;4974908;28;20046;-87
2022/01/13 03:04:06;;;;;;;;;;;;;;;-144.19;100.00;79824.47;5002126;28;20104;-89
2022/01/13 03:06:37;;;;;;;102.95;33.72;;;;;;;-144.19;100.00;79810.69;4974902;28;19944;-88
2022/01/13 03:09:05;;;;;;;104.85;31.55;;;;;;;-144.19;100.00;79820.53;4993010;28;20054;-88
2022/01/13 03:11:37;;;;;;;96.97;31.65;;;;;;;-144.19;100.00;79804.78;4975208;28;20057;-89
2022/01/13 03:14:10;;;;;;;100.53;34.58;;;;;;;-144.19;100.00;79800.84;4992271;28;20055;-88
2022/01/13 03:16:37;;;;;;;99.88;34.88;;;;;;;-144.19;100.00;79820.53;4974760;28;20058;-89
2022/01/13 03:19:04;;;;;;;96.88;33.85;;;;;;;-144.19;100.00;79824.47;4992074;28;20065;-88
2022/01/13 03:21:31;;;;;;;104.63;32.97;;;;;;;-144.19;100.00;79800.84;4992005;28;20055;-91
2022/01/13 03:23:57;;;;;;;93.55;32.25;;;;;;;-144.19;100.00;79806.75;4974577;28;20669;-90
2022/01/13 03:26:24;;;;;;;99.90;32.83;;;;;;;-144.19;100.00;79804.78;4974766;28;20047;-89
2022/01/13 03:28:54;;;;;;;93.38;30.35;;;;;;;-144.19;100.00;79824.47;4975429;28;20046;-90
2022/01/13 03:31:23;;;;;;;108.80;34.28;;;;;;;-144.19;100.00;79794.94;4975193;28;20465;-89
2022/01/13 03:33:53;;;;;;;95.38;33.13;;;;;;;-144.19;100.00;79804.78;4974393;28;20057;-90
2022/01/13 03:36:20;;;;;;;115.63;37.15;;;;;;;-144.19;100.00;79816.59;4991995;28;20054;-89
2022/01/13 03:38:46;;;;;;;;;;;;;;;-144.19;100.00;79832.38;4976047;28;20140;-89
2022/01/13 03:41:13;;;;;;;104.38;33.15;;;;;;;-144.19;100.00;79812.66;4992514;28;20008;-88
2022/01/13 03:43:40;;;;;;;112.85;34.75;;;;;;;-144.19;100.00;79796.91;4975630;28;20054;-90
2022/01/13 03:46:07;;;;;;;;;;;;;;;-144.19;100.00;79800.84;4977416;28;20054;-88
2022/01/13 03:48:38;;;;;;;102.57;36.03;;;;;;;-144.19;100.00;79808.72;4972556;28;19973;-89
2022/01/13 03:51:04;;;;;;;108.03;34.83;;;;;;;-144.19;100.00;79804.78;4964392;28;20050;-91
2022/01/13 03:54:08;;;;;;;101.00;31.98;;;;;;;-144.19;100.00;79806.75;4971216;28;20133;-91
2022/01/13 03:56:53;;;;;;;88.93;34.17;;;;;;;-144.19;100.00;79792.97;4957573;28;20059;-89
2022/01/13 03:59:32;;;;;;;100.32;32.78;;;;;;;-144.19;100.00;79789.03;4970120;28;20070;-88
2022/01/13 04:02:03;;;;;;;95.43;31.75;;;;;;;-144.19;100.00;79802.81;5002710;28;20054;-88
2022/01/13 04:04:34;;;;;;;83.63;29.95;;;;;;;-144.19;100.00;79781.16;4981673;28;20097;-88
2022/01/13 04:07:11;;;;;;;92.07;30.63;;;;;;;-144.19;100.00;79781.16;4991812;28;20058;-88
2022/01/13 04:09:40;;;;;;;94.85;33.20;;;;;;;-144.19;100.00;79794.94;5005035;28;20054;-88
2022/01/13 04:12:10;;;;;;;113.00;34.75;;;;;;;-144.19;100.00;79787.06;4975728;28;20149;-89
2022/01/13 04:14:58;;;;;;;87.63;30.20;;;;;;;-144.19;100.00;79816.59;4980719;28;20046;-88
2022/01/13 04:17:26;;;;;;;79.35;27.35;;;;;;;-144.19;100.00;79804.78;4977181;28;20108;-89
2022/01/13 04:19:53;;;;;;;91.25;31.38;;;;;;;-144.19;100.00;79798.88;4978210;28;20373;-89
2022/01/13 04:22:20;;;;;;;81.47;29.23;;;;;;;-144.19;100.00;79816.59;4977344;28;20312;-88
2022/01/13 04:24:49;;;;;;;99.53;34.40;;;;;;;-144.19;100.00;79804.78;4995028;28;20501;-89
2022/01/13 04:27:22;;;;;;;84.13;29.55;;;;;;;-144.19;100.00;79792.97;4995007;28;20096;-88
2022/01/13 04:30:00;;;;;;;93.03;33.13;;;;;;;-144.19;100.00;79785.09;4979455;28;20054;-89
2022/01/13 04:32:26;;;;;;;94.40;31.02;;;;;;;-144.19;100.00;79773.25;4996774;28;20054;-88
2022/01/13 04:34:53;;;;;;;107.37;31.63;;;;;;;-144.19;100.00;79771.28;4977834;28;20047;-87
2022/01/13 04:37:19;;;;;;;96.17;33.13;;;;;;;-144.19;100.00;79785.09;4995257;28;20798;-88
2022/01/13 04:39:45;;;;;;;101.03;29.37;;;;;;;-144.19;100.00;79769.31;4994945;28;20388;-88
2022/01/13 04:42:14;;;;;;;97.93;30.40;;;;;;;-144.19;100.00;79777.19;4977181;28;20089;-88
2022/01/13 04:45:59;;;;;;;83.63;27.25;;;;;;;-144.19;100.00;79789.03;4978628;28;20050;-89
2022/01/13 04:48:20;;;;;;;93.95;27.08;;;;;;;-144.19;100.00;79765.38;4992029;28;20094;-85
2022/01/13 04:50:47;;;;;;;104.40;29.67;;;;;;;-144.19;100.00;79773.25;4993458;28;20057;-88
2022/01/13 04:53:14;;;;;;;98.55;31.08;;;;;;;-144.19;100.00;79794.94;4993535;28;20046;-87
2022/01/13 04:55:49;;;;;;;;;;;;;;;-144.19;100.00;79777.19;4972466;28;20058;-88
2022/01/13 04:58:16;;;;;;;108.80;32.30;;;;;;;-144.19;100.00;79771.28;4958253;28;20056;-88
2022/01/13 05:00:43;;;;;;;106.63;30.65;;;;;;;-144.19;100.00;79769.31;4978058;28;20077;-87
2022/01/13 05:03:10;;;;;;;92.55;30.05;;;;;;;-144.19;100.00;79777.19;5009840;28;20062;-89
2022/01/13 05:05:36;;;;;;;99.22;32.15;;;;;;;-144.19;100.00;79781.16;5010174;28;20393;-88
2022/01/13 05:08:03;;;;;;;96.40;33.45;;;;;;;-144.19;100.00;79775.22;5009948;28;20085;-88
2022/01/13 05:10:34;;;;;;;100.60;31.67;;;;;;;-144.19;100.00;79763.41;4995422;28;20054;-89
2022/01/13 05:13:03;;;;;;;102.70;30.98;;;;;;;-144.19;100.00;79783.13;5010024;28;20117;-88
2022/01/13 05:15:31;;;;;;;107.35;30.92;;;;;;;-144.19;100.00;79761.44;4976157;28;20129;-90
2022/01/13 05:21:01;;;;;;;98.82;31.73;;;;;;;-144.19;100.00;79759.47;4994548;28;20046;-88
2022/01/13 05:23:28;;;;;;;107.45;31.08;;;;;;;-144.19;100.00;79765.38;4994093;28;20109;-88
2022/01/13 05:25:55;;;;;;;89.47;30.17;;;;;;;-144.19;100.00;79761.44;4977374;28;20050;-86
2022/01/13 05:28:22;;;;;;;98.53;30.25;;;;;;;-144.19;100.00;79755.53;4995590;28;20827;-88
2022/01/13 05:30:48;;;;;;;83.95;29.13;;;;;;;-144.19;100.00;79777.19;4973102;28;20046;-88
2022/01/13 05:33:15;;;;;;;99.97;31.92;;;;;;;-144.19;100.00;79761.44;4961145;28;20058;-87
2022/01/13 05:35:41;;;;;;;109.30;32.75;;;;;;;-144.19;100.00;79759.47;4963478;28;20050;-88
2022/01/13 05:38:09;;;;;;;85.90;28.92;;;;;;;-144.19;100.00;79777.19;4960379;28;20051;-87
2022/01/13 05:40:37;;;;;;;105.30;31.60;;;;;;;-144.19;100.00;79755.53;4957595;28;20058;-88
2022/01/13 05:43:04;;;;;;;95.18;29.02;;;;;;;-144.19;100.00;79753.56;4976545;28;20137;-88
2022/01/13 05:45:37;;;;;;;106.15;31.02;;;;;;;-144.19;100.00;79761.44;4977861;28;20108;-89
2022/01/13 05:48:04;;;;;;;112.00;33.10;;;;;;;-144.19;100.00;79737.81;4976497;28;20062;-87
2022/01/13 05:50:31;;;;;;;101.28;32.75;;;;;;;-144.19;100.00;79765.38;4994821;28;20065;-88
2022/01/13 05:52:58;;;;;;;115.25;32.60;;;;;;;-144.19;100.00;79741.75;4986205;28;20125;-88
2022/01/13 05:55:24;;;;;;;100.78;32.30;;;;;;;-144.19;100.00;79745.69;4971051;28;20042;-89
2022/01/13 05:57:54;;;;;;;101.67;32.67;;;;;;;-144.19;100.00;79751.59;4977261;28;20054;-90
2022/01/13 06:00:22;;;;;;;109.00;35.53;;;;;;;-144.19;100.00;79749.63;4977385;28;20899;-90
2022/01/13 06:02:50;;;;;;;98.72;31.80;;;;;;;-144.19;100.00;79749.63;4964818;28;20054;-89
2022/01/13 06:05:18;;;;;;;100.72;31.50;;;;;;;-144.19;100.00;79733.88;4999439;28;20073;-87
2022/01/13 06:07:45;;;;;;;102.00;31.38;;;;;;;-144.19;100.00;79731.91;4967789;28;20420;-89
2022/01/13 06:10:18;;;;;;;108.07;31.67;;;;;;;-144.19;100.00;79733.88;4975088;28;20054;-90
2022/01/13 06:12:51;;;;;;;89.93;30.45;;;;;;;-144.19;100.00;79747.66;4974235;28;20432;-88
2022/01/13 06:15:20;;;;;;;94.85;30.45;;;;;;;-144.19;100.00;79765.38;4974038;28;20421;-88
2022/01/13 06:17:49;;;;;;;93.85;32.50;;;;;;;-144.19;100.00;79755.53;4970856;28;20050;-88
2022/01/13 06:20:20;;;;;;;105.18;33.65;;;;;;;-144.19;100.00;79765.38;4996492;28;20077;-87
2022/01/13 06:23:04;;;;;;;102.03;31.23;;;;;;;-144.19;100.00;79753.56;5013776;28;20058;-87
2022/01/13 06:28:42;;;;;;;103.00;32.60;;;;;;;-144.19;100.00;79759.47;5013937;28;20057;-87
2022/01/13 06:31:39;;;;;;;99.72;32.17;;;;;;;-144.19;100.00;79759.47;4976805;28;20054;-89
2022/01/13 06:34:12;;;;;;;110.25;31.48;;;;;;;-144.19;100.00;79751.59;4997806;28;20068;-87
2022/01/13 06:36:39;;;;;;;96.38;33.90;;;;;;;-144.19;100.00;79769.31;4996481;28;20069;-86
2022/01/13 06:42:48;;;;;;;96.80;30.40;;;;;;;-144.19;100.00;79753.56;4999584;28;20559;-86
2022/01/13 06:45:43;;;;;;;112.68;33.58;;;;;;;-144.19;100.00;79759.47;5006142;28;20161;-87
2022/01/13 06:48:11;;;;;;;106.97;32.05;;;;;;;-144.19;100.00;79771.28;4996368;28;20059;-87
2022/01/13 06:50:41;;;;;;;104.88;33.65;;;;;;;-144.19;100.00;79759.47;4996528;28;20075;-88
2022/01/13 06:53:20;;;;;;;111.97;34.00;;;;;;;-144.19;100.00;79775.22;5027575;28;20050;-87
2022/01/13 06:55:48;;;;;;;103.43;34.22;;;;;;;-144.19;100.00;79773.25;4996339;28;20050;-87
2022/01/13 06:58:39;;;;;;;110.22;32.78;;;;;;;-144.19;100.00;79771.28;4997130;28;20042;-87
2022/01/13 07:04:35;;;;;;;115.68;32.00;;;;;;;-144.19;100.00;79777.19;5005761;28;20084;-88
2022/01/13 07:07:18;;;;;;;116.55;34.80;;;;;;;-144.19;100.00;79765.38;4997046;28;20054;-87
2022/01/13 07:10:11;;;;;;;108.90;35.50;;;;;;;-144.19;100.00;79765.38;4982091;28;20110;-87
2022/01/13 07:12:41;;;;;;;112.13;36.75;;;;;;;-144.19;100.00;79753.56;4996324;28;20516;-87
2022/01/13 07:15:18;;;;;;;105.68;35.90;;;;;;;-144.19;100.00;79765.38;4995963;28;20053;-87
2022/01/13 07:17:47;;;;;;;92.60;31.48;;;;;;;-144.19;100.00;79785.09;4995767;28;20058;-85
2022/01/13 07:20:28;;;;;;;;;;;;;;;-144.19;100.00;79792.97;4998609;28;20050;-88
2022/01/13 07:23:01;;;;;;;101.07;31.52;;;;;;;-144.19;100.00;79804.78;5013612;28;19928;-87
2022/01/13 08:21:54;;;;;;;107.35;33.15;;;;;;;-144.19;100.00;79824.47;4976595;28;20054;-94
2022/01/13 08:24:20;;;;;;;111.10;35.75;;;;;;;-144.19;100.00;79808.72;4959225;28;20058;-91
2022/01/13 08:26:47;;;;;;;111.47;34.60;;;;;;;-144.19;100.00;79818.56;4958310;28;20051;-92
2022/01/13 08:29:13;;;;;;;117.22;35.05;;;;;;;-144.19;100.00;79820.53;4958664;28;20286;-91
2022/01/13 08:31:40;;;;;;;104.43;33.17;;;;;;;-144.19;100.00;79842.22;4958594;28;20629;-92
2022/01/13 08:34:07;;;;;;;116.93;34.88;;;;;;;-144.19;100.00;79816.59;4958761;28;20051;-92
2022/01/13 08:36:33;;;;;;;;;;;;;;;-144.19;100.00;79816.59;4976162;28;20101;-92
2022/01/13 08:39:00;;;;;;;103.68;33.28;;;;;;;-144.19;100.00;79840.25;4958816;28;19929;-92
2022/01/13 08:41:26;;;;;;;112.70;34.63;;;;;;;-144.19;100.00;79808.72;4958444;28;20061;-93
2022/01/13 08:43:55;;;;;;;104.07;32.15;;;;;;;-144.19;100.00;79840.25;4957992;28;20446;-92
2022/01/13 08:46:21;;;;;;;99.25;33.22;;;;;;;-144.19;100.00;79842.22;4957863;28;20063;-92
2022/01/13 08:48:51;;;;;;;104.10;33.85;;;;;;;-144.19;100.00;79812.66;4958797;28;20050;-92
2022/01/13 08:51:18;;;;;;;106.68;34.50;;;;;;;-144.19;100.00;79824.47;4958153;28;20055;-92
2022/01/13 08:53:46;;;;;;;111.57;35.40;;;;;;;-144.19;100.00;79832.38;4958692;28;20433;-92
2022/01/13 08:56:13;;;;;;;102.60;32.75;;;;;;;-144.19;100.00;79848.13;4958129;28;20529;-93
2022/01/13 08:58:40;;;;;;;109.53;35.03;;;;;;;-144.19;100.00;79832.38;4974752;28;20069;-92
2022/01/13 09:01:07;;;;;;;104.90;32.92;;;;;;;-144.19;100.00;79826.44;4958436;28;20080;-93
2022/01/13 09:03:35;;;;;;;109.88;34.92;;;;;;;-144.19;100.00;79836.31;4958115;28;20062;-92
2022/01/13 09:06:03;;;;;;;120.95;36.30;;;;;;;-144.19;100.00;79824.47;4958279;28;20125;-92
2022/01/13 09:08:34;;;;;;;118.88;37.13;;;;;;;-144.19;100.00;79814.63;4958985;28;20077;-93
2022/01/13 09:11:01;;;;;;;114.47;38.85;;;;;;;-144.19;100.00;79814.63;4958544;28;20102;-92
2022/01/13 09:13:27;;;;;;;118.20;35.35;;;;;;;-144.19;100.00;79822.50;4958032;28;20110;-93
2022/01/13 09:15:59;;;;;;;117.40;34.55;;;;;;;-144.19;100.00;79824.47;4959011;28;20454;-93
2022/01/13 09:18:46;;;;;;;114.72;36.60;;;;;;;-144.19;100.00;79820.53;4958493;28;20493;-92
2022/01/13 09:21:16;;;;;;;92.72;30.83;;;;;;;-144.19;100.00;79856.00;4958142;28;20070;-91
2022/01/13 09:23:43;;;;;;;103.80;32.60;;;;;;;-144.19;100.00;79824.47;4957998;28;20051;-91
2022/01/13 09:26:16;;;;;;;117.30;35.88;;;;;;;-144.19;100.00;79816.59;4958744;28;20097;-92
2022/01/13 09:28:48;;;;;;;92.15;31.42;;;;;;;-144.19;100.00;79842.22;4958744;28;20074;-92
2022/01/13 09:31:18;;;;;;;103.95;32.33;;;;;;;-144.19;100.00;79812.66;4960266;28;20058;-87
2022/01/13 09:33:45;;;;;;;96.30;32.58;;;;;;;-144.19;100.00;79804.78;4959259;28;20063;-92
2022/01/13 09:36:11;;;;;;;105.55;34.08;;;;;;;-144.19;100.00;79804.78;4958023;28;20132;-91
2022/01/13 09:38:55;;;;;;;114.35;35.13;;;;;;;-144.19;100.00;79816.59;4961495;28;20106;-92
2022/01/13 09:42:06;;;;;;;99.15;32.58;;;;;;;-144.19;100.00;79814.63;4958503;28;20051;-92
2022/01/13 09:44:57;;;;;;;105.35;35.20;;;;;;;-144.19;100.00;79812.66;4960046;28;20070;-92
2022/01/13 09:47:33;;;;;;;117.00;35.43;;;;;;;-144.19;100.00;79802.81;4958996;28;20622;-91
2022/01/13 09:50:05;;;;;;;93.57;31.02;;;;;;;-144.19;100.00;79818.56;4958788;28;20059;-94
2022/01/13 09:56:27;;;;;;;;;;;;;;;;;;;;;
2022/01/13 09:59:11;;;;;;;92.10;29.58;;;;;;;-144.19;100.00;79812.66;4961114;28;20057;-95
2022/01/13 10:02:31;;;;;;;103.07;32.88;;;;;;;-144.19;100.00;79775.22;4948947;29;20457;-92
2022/01/13 10:05:51;;;;;;;108.82;32.75;;;;;;;-144.19;100.00;79785.09;4930821;29;20545;-92
2022/01/13 10:09:26;;;;;;;96.55;30.50;;;;;;;-144.19;100.00;79781.16;4879107;29;20152;-93
2022/01/13 10:18:52;;;;;;;82.20;29.75;;;;;;;-144.19;100.00;79777.19;4875888;29;20045;-92
2022/01/13 10:21:53;;;;;;;91.50;30.05;;;;;;;-144.19;100.00;79775.22;4861864;29;20049;-92
2022/01/13 10:27:52;;;;;;;86.00;28.52;;;;;;;-144.19;100.00;79757.50;4875658;29;20149;-92
2022/01/13 10:30:38;;;;;;;92.70;32.05;;;;;;;-144.19;100.00;79733.88;4863093;29;20483;-93
2022/01/13 10:33:27;;;;;;;89.05;30.77;;;;;;;-144.19;100.00;79745.69;4864506;29;20063;-93
2022/01/13 10:36:09;;;;;;;86.60;30.52;;;;;;;-144.19;100.00;79761.44;4864505;29;20141;-92
2022/01/13 10:39:14;;;;;;;71.28;26.83;;;;;;;-144.19;100.00;79745.69;4873966;29;20047;-93
2022/01/13 10:53:02;;;;;;;69.80;24.92;;;;;;;-144.19;100.00;79781.16;4859292;29;20172;-93
2022/01/13 10:55:47;;;;;;;67.13;24.65;;;;;;;-144.19;100.00;79749.63;4859139;29;20523;-93
2022/01/13 10:59:18;;;;;;;65.15;25.45;;;;;;;-144.19;100.00;79733.88;4860148;29;20541;-93
2022/01/13 11:02:45;;;;;;;61.45;25.58;;;;;;;-144.19;100.00;79731.91;4863911;29;20158;-93
2022/01/13 11:06:26;;;;;;;65.55;26.08;;;;;;;-144.19;100.00;79714.16;4913313;28;20069;-91
2022/01/13 11:17:11;;;;;;;84.43;30.17;;;;;;;-144.19;100.00;79692.50;4985075;28;20081;-93
2022/01/13 11:20:51;;;;;;;81.28;30.33;;;;;;;-144.19;100.00;79698.41;4989812;28;20057;-93
2022/01/13 11:23:47;;;;;;;77.28;29.48;;;;;;;-144.19;100.00;79708.25;4981551;28;20428;-93
2022/01/13 11:26:21;;;;;;;70.25;26.95;;;;;;;-144.19;100.00;79722.03;4965030;28;20059;-92
2022/01/13 11:28:51;;;;;;;68.30;24.67;;;;;;;-144.19;100.00;79714.16;4962564;28;20055;-92
2022/01/13 11:31:19;;;;;;;63.90;24.42;;;;;;;-144.19;100.00;79690.53;4962936;28;20138;-92
2022/01/13 11:33:47;;;;;;;65.70;26.73;;;;;;;-144.19;100.00;79706.28;4961723;28;20564;-93
2022/01/13 11:36:30;;;;;;;66.38;24.45;;;;;;;-144.19;100.00;79690.53;4963204;28;20054;-92
2022/01/13 11:39:05;;;;;;;74.05;26.00;;;;;;;-144.19;100.00;79686.59;4967840;28;20055;-93
2022/01/13 11:41:32;;;;;;;75.68;27.98;;;;;;;-144.19;100.00;79680.69;4965665;28;20075;-92
2022/01/13 11:44:17;;;;;;;67.20;25.55;;;;;;;-144.19;100.00;79684.63;4960422;28;20047;-90
2022/01/13 11:46:46;;;;;;;65.05;24.83;;;;;;;-144.19;100.00;79674.75;4959639;28;20051;-89
2022/01/13 11:49:19;;;;;;;69.97;28.27;;;;;;;-144.19;100.00;79674.75;4991473;28;20501;-90
2022/01/13 11:51:49;;;;;;;76.28;28.45;;;;;;;-144.19;100.00;79674.75;4958829;28;20413;-89
2022/01/13 11:54:33;;;;;;;73.15;27.02;;;;;;;-144.19;100.00;79678.72;4975717;28;20421;-90
2022/01/13 11:57:26;;;;;;;76.57;27.90;;;;;;;-144.19;100.00;79668.84;4961849;28;20051;-92
2022/01/13 11:59:55;;;;;;;82.75;29.10;;;;;;;-144.19;100.00;79653.09;4977691;28;20459;-91
2022/01/13 12:02:31;;;;;;;72.65;27.95;;;;;;;-144.19;100.00;79664.91;4991248;28;20488;-89
2022/01/13 12:05:19;;;;;;;63.83;25.83;;;;;;;-144.19;100.00;79645.22;4976402;28;20069;-91
2022/01/13 12:07:55;;;;;;;74.43;27.48;;;;;;;-144.19;100.00;79631.44;4959351;28;20055;-88
2022/01/13 12:10:40;;;;;;;58.70;23.55;;;;;;;-144.19;100.00;79649.16;4991918;28;20147;-94
2022/01/13 12:13:27;;;;;;;69.05;25.88;;;;;;;-144.19;100.00;79627.50;4990029;28;20054;-90
2022/01/13 12:15:55;;;;;;;62.40;27.08;;;;;;;-144.19;100.00;79643.25;4990179;28;20050;-90
2022/01/13 12:18:44;;;;;;;75.13;29.25;;;;;;;-144.19;100.00;79619.59;4958414;28;20050;-90
2022/01/13 12:21:35;;;;;;;79.60;30.38;;;;;;;-144.19;100.00;79609.75;4975547;28;20051;-90
2022/01/13 12:24:05;;;;;;;66.57;26.50;;;;;;;-144.19;100.00;79647.19;4957818;28;20497;-87
2022/01/13 12:26:34;;;;;;;77.60;28.73;;;;;;;-144.19;100.00;79619.59;4975986;28;20511;-92
2022/01/13 12:29:21;;;;;;;72.22;28.15;;;;;;;-144.19;100.00;79641.28;4991169;28;20105;-90
2022/01/13 12:32:06;;;;;;;68.23;25.80;;;;;;;-144.19;100.00;79623.53;4961220;28;20416;-93
2022/01/13 12:34:32;;;;;;;76.18;28.45;;;;;;;-144.19;100.00;79631.44;4959897;28;20047;-90
2022/01/13 12:37:11;;;;;;;62.43;25.00;;;;;;;-144.19;100.00;79651.13;4991709;28;20050;-91
2022/01/13 12:39:48;;;;;;;68.47;25.42;;;;;;;-144.19;100.00;79639.31;4993433;28;20137;-92
2022/01/13 12:42:18;;;;;;;60.97;23.95;;;;;;;-144.19;100.00;79631.44;4958707;28;20078;-91
2022/01/13 12:47:30;;;;;;;71.25;26.70;;;;;;;-144.19;100.00;79619.59;4964856;28;20051;-92
2022/01/13 12:49:57;;;;;;;65.80;24.30;;;;;;;-144.19;100.00;79619.59;4947035;29;20055;-91
2022/01/13 12:52:26;;;;;;;63.58;25.80;;;;;;;-144.19;100.00;79633.41;4947090;29;20048;-91
2022/01/13 12:54:54;;;;;;;61.95;23.33;;;;;;;-144.19;100.00;79629.47;4950404;28;20053;-91
2022/01/13 12:57:24;;;;;;;61.47;23.75;;;;;;;-144.19;100.00;79615.66;4959687;28;20055;-92
2022/01/13 12:59:54;;;;;;;;;;;;;;;-144.19;100.00;79603.84;4943520;29;20058;-92
2022/01/13 13:02:21;;;;;;;53.67;23.35;;;;;;;-144.19;100.00;79631.44;4942557;29;20013;-92
2022/01/13 13:04:50;;;;;;;56.38;22.15;;;;;;;-144.19;100.00;79617.63;4941188;29;20079;-89
2022/01/13 13:07:17;;;;;;;53.45;21.80;;;;;;;-144.19;100.00;79637.34;4940028;29;20071;-92
2022/01/13 13:09:44;;;;;;;57.20;22.02;;;;;;;-144.19;100.00;79623.53;4939313;29;20474;-91
2022/01/13 13:12:23;;;;;;;62.38;22.13;;;;;;;-144.19;100.00;79627.50;4942441;29;20062;-93
2022/01/13 13:17:42;;;;;;;61.53;24.15;;;;;;;-144.19;100.00;79609.75;4958451;29;20055;-92
2022/01/13 13:20:23;;;;;;;56.58;23.05;;;;;;;-144.19;100.00;79629.47;4942729;29;20051;-92
2022/01/13 13:23:06;;;;;;;54.78;21.60;;;;;;;-144.19;100.00;79623.53;4942279;29;20078;-91
2022/01/13 13:25:42;;;;;;;52.50;24.45;;;;;;;-144.19;100.00;79603.84;4940735;29;20055;-92
2022/01/13 13:28:31;;;;;;;62.03;24.23;;;;;;;-144.19;100.00;79613.69;4940963;29;20059;-90
2022/01/13 13:31:11;;;;;;;;;;;;;;;-144.19;100.00;79619.59;4941312;29;20055;-92